createdAt,value
2018-01-17T00:02:26.158Z,92.26
2018-01-17T00:04:54.741Z,92.39
2018-01-17T00:07:24.685Z,92.26
2018-01-17T00:09:53.398Z,92.27
2018-01-17T00:12:21.800Z,92.30
2018-01-17T00:14:50.428Z,92.16
2018-01-17T00:17:18.743Z,92.00
2018-01-17T00:19:47.388Z,92.06
2018-01-17T00:22:16.393Z,91.89
2018-01-17T00:24:44.704Z,91.81
2018-01-17T00:27:12.999Z,91.87
2018-01-17T00:29:42.030Z,92.32
2018-01-17T00:32:10.328Z,92.48
2018-01-17T00:34:38.686Z,92.51
2018-01-17T00:37:07.039Z,92.61
2018-01-17T00:39:35.360Z,92.60
2018-01-17T00:42:03.651Z,92.78
2018-01-17T00:44:31.976Z,92.44
2018-01-17T00:47:00.487Z,92.18
2018-01-17T00:49:29.243Z,92.20
2018-01-17T00:51:58.331Z,92.27
2018-01-17T00:54:26.624Z,92.19
2018-01-17T00:56:54.924Z,92.75
2018-01-17T00:59:23.268Z,93.19
2018-01-17T01:01:51.566Z,93.15
2018-01-17T01:04:19.867Z,92.96
2018-01-17T01:06:49.122Z,93.07
2018-01-17T01:09:17.431Z,93.39
2018-01-17T01:11:46.167Z,93.21
2018-01-17T01:14:14.520Z,93.12
2018-01-17T01:16:42.817Z,93.03
2018-01-17T01:19:11.115Z,92.70
2018-01-17T01:21:39.823Z,92.80
2018-01-17T01:24:08.115Z,92.40
2018-01-17T01:26:36.416Z,92.08
2018-01-17T01:29:05.976Z,91.72
2018-01-17T01:31:34.958Z,91.58
2018-01-17T01:34:03.308Z,91.53
2018-01-17T01:36:32.425Z,91.34
2018-01-17T01:39:00.827Z,91.69
2018-01-17T01:41:29.138Z,91.82
2018-01-17T01:43:57.490Z,91.72
2018-01-17T01:46:26.026Z,92.08
2018-01-17T01:49:01.991Z,92.20
2018-01-17T01:51:31.589Z,92.20
2018-01-17T01:53:59.935Z,92.44
2018-01-17T01:56:28.278Z,92.42
2018-01-17T01:58:56.669Z,92.15
2018-01-17T02:01:25.009Z,92.44
2018-01-17T02:03:53.350Z,92.34
2018-01-17T02:06:21.733Z,92.75
2018-01-17T02:08:50.842Z,92.51
2018-01-17T02:11:19.183Z,92.65
2018-01-17T02:13:48.548Z,93.06
2018-01-17T02:16:16.898Z,93.25
2018-01-17T02:18:45.248Z,92.93
2018-01-17T02:21:13.601Z,92.79
2018-01-17T02:23:42.319Z,92.56
2018-01-17T02:26:11.410Z,92.56
2018-01-17T02:28:40.078Z,92.45
2018-01-17T02:31:14.758Z,92.73
2018-01-17T02:33:43.505Z,92.74
2018-01-17T02:36:11.815Z,92.89
2018-01-17T02:38:40.141Z,92.97
2018-01-17T02:41:09.079Z,92.82
2018-01-17T02:43:37.860Z,93.22
2018-01-17T02:46:06.736Z,93.25
2018-01-17T02:48:35.044Z,93.40
2018-01-17T02:51:03.352Z,93.52
2018-01-17T02:53:32.386Z,93.48
2018-01-17T02:56:00.691Z,93.48
2018-01-17T02:58:28.995Z,93.51
2018-01-17T03:00:58.064Z,93.23
2018-01-17T03:03:26.408Z,93.24
2018-01-17T03:05:54.803Z,93.43
2018-01-17T03:08:23.157Z,93.53
2018-01-17T03:10:51.455Z,93.82
2018-01-17T03:13:20.579Z,94.05
2018-01-17T03:15:48.923Z,94.11
2018-01-17T03:18:17.229Z,94.05
2018-01-17T03:20:45.527Z,93.72
2018-01-17T03:23:13.896Z,93.58
2018-01-17T03:25:42.541Z,93.59
2018-01-17T03:28:10.840Z,93.50
2018-01-17T03:30:39.189Z,93.05
2018-01-17T03:33:08.804Z,92.89
2018-01-17T03:35:37.836Z,93.08
2018-01-17T03:38:06.190Z,93.18
2018-01-17T03:40:35.368Z,93.55
2018-01-17T03:43:03.688Z,93.58
2018-01-17T03:45:31.988Z,93.95
2018-01-17T03:48:00.331Z,94.20
2018-01-17T03:50:28.622Z,94.10
2018-01-17T03:52:56.915Z,94.38
2018-01-17T03:55:25.247Z,94.20
2018-01-17T03:57:53.546Z,94.39
2018-01-17T04:00:21.858Z,94.61
2018-01-17T04:02:50.228Z,94.57
2018-01-17T04:05:18.747Z,94.48
2018-01-17T04:07:47.055Z,94.21
2018-01-17T04:10:15.399Z,93.92
2018-01-17T04:12:43.873Z,93.90
2018-01-17T04:15:12.171Z,93.46
2018-01-17T04:17:40.515Z,90.74
2018-01-17T04:20:08.807Z,88.26
2018-01-17T04:22:37.115Z,87.53
2018-01-17T04:25:05.714Z,86.71
2018-01-17T04:27:34.010Z,86.64
2018-01-17T04:30:02.627Z,87.10
2018-01-17T04:32:31.238Z,87.18
2018-01-17T04:35:00.020Z,87.21
2018-01-17T04:37:28.781Z,87.70
2018-01-17T04:39:57.563Z,88.58
2018-01-17T04:42:27.010Z,88.96
2018-01-17T04:44:55.502Z,89.41
2018-01-17T04:47:23.850Z,89.80
2018-01-17T04:49:52.155Z,90.28
2018-01-17T04:52:20.467Z,90.30
2018-01-17T04:54:48.806Z,90.29
2018-01-17T04:57:17.098Z,90.00
2018-01-17T04:59:45.712Z,90.07
2018-01-17T05:02:14.215Z,89.57
2018-01-17T05:04:42.512Z,89.99
2018-01-17T05:07:10.870Z,90.14
2018-01-17T05:09:39.222Z,90.20
2018-01-17T05:12:07.979Z,90.87
2018-01-17T05:14:36.354Z,90.27
2018-01-17T05:17:05.523Z,90.49
2018-01-17T05:19:33.819Z,90.25
2018-01-17T05:22:02.116Z,89.61
2018-01-17T05:24:31.166Z,89.37
2018-01-17T05:26:59.458Z,89.82
2018-01-17T05:29:27.766Z,89.67
2018-01-17T05:31:56.131Z,88.99
2018-01-17T05:34:24.434Z,89.66
2018-01-17T05:36:53.182Z,90.20
2018-01-17T05:39:21.528Z,90.08
2018-01-17T05:41:49.829Z,89.93
2018-01-17T05:44:18.895Z,88.29
2018-01-17T05:46:47.250Z,86.01
2018-01-17T05:49:15.683Z,85.30
2018-01-17T05:51:43.996Z,85.75
2018-01-17T05:54:12.323Z,83.80
2018-01-17T05:56:40.627Z,83.07
2018-01-17T05:59:08.938Z,82.20
2018-01-17T06:01:37.451Z,80.78
2018-01-17T06:04:05.858Z,81.85
2018-01-17T06:06:34.439Z,82.31
2018-01-17T06:09:03.468Z,83.94
2018-01-17T06:11:31.771Z,84.76
2018-01-17T06:14:00.088Z,85.33
2018-01-17T06:16:29.067Z,86.03
2018-01-17T06:18:58.179Z,86.09
2018-01-17T06:21:26.503Z,85.50
2018-01-17T06:23:54.847Z,86.06
2018-01-17T06:26:23.143Z,85.84
2018-01-17T06:28:51.454Z,85.93
2018-01-17T06:31:20.480Z,85.02
2018-01-17T06:33:48.955Z,84.72
2018-01-17T06:36:18.656Z,85.17
2018-01-17T06:38:47.279Z,85.10
2018-01-17T06:41:15.583Z,84.80
2018-01-17T06:43:43.887Z,84.84
2018-01-17T06:46:12.491Z,83.63
2018-01-17T06:48:40.794Z,83.98
2018-01-17T06:51:09.095Z,83.22
2018-01-17T06:53:38.184Z,81.85
2018-01-17T06:56:06.486Z,81.66
2018-01-17T06:58:35.004Z,80.64
2018-01-17T07:01:05.427Z,79.58
2018-01-17T07:03:34.336Z,77.57
2018-01-17T07:06:02.665Z,77.65
2018-01-17T07:08:31.102Z,77.39
2018-01-17T07:11:00.160Z,76.59
2018-01-17T07:13:28.464Z,77.28
2018-01-17T07:15:57.405Z,78.34
2018-01-17T07:18:25.699Z,79.20
2018-01-17T07:20:54.016Z,80.28
2018-01-17T07:23:22.642Z,82.17
2018-01-17T07:25:50.947Z,82.32
2018-01-17T07:28:19.252Z,82.69
2018-01-17T07:30:48.007Z,83.14
2018-01-17T07:33:16.503Z,82.57
2018-01-17T07:35:44.802Z,81.80
2018-01-17T07:38:13.151Z,81.81
2018-01-17T07:40:41.463Z,81.62
2018-01-17T07:43:10.228Z,82.12
2018-01-17T07:45:39.319Z,82.53
2018-01-17T07:48:07.640Z,82.60
2018-01-17T07:50:35.931Z,82.26
2018-01-17T07:53:04.278Z,80.45
2018-01-17T07:55:32.579Z,78.10
2018-01-17T07:58:00.884Z,77.21
2018-01-17T08:00:29.240Z,77.66
2018-01-17T08:02:57.543Z,78.55
2018-01-17T08:05:25.864Z,76.79
2018-01-17T08:07:54.214Z,75.60
2018-01-17T08:10:23.007Z,74.98
2018-01-17T08:12:51.303Z,75.09
2018-01-17T08:15:20.275Z,73.09
2018-01-17T08:17:48.586Z,71.70
2018-01-17T08:20:17.531Z,71.66
2018-01-17T08:22:45.911Z,69.97
2018-01-17T08:25:14.943Z,70.01
2018-01-17T08:27:43.239Z,70.08
2018-01-17T08:30:11.698Z,69.02
2018-01-17T08:32:40.005Z,68.32
2018-01-17T08:35:08.316Z,69.44
2018-01-17T08:37:36.704Z,68.99
2018-01-17T08:40:05.703Z,69.40
2018-01-17T08:42:34.623Z,70.44
2018-01-17T08:45:02.991Z,70.46
2018-01-17T08:47:31.284Z,70.97
2018-01-17T08:49:59.637Z,70.44
2018-01-17T08:52:27.979Z,70.20
2018-01-17T08:54:56.423Z,69.98
2018-01-17T08:57:24.860Z,71.90
2018-01-17T08:59:53.202Z,70.74
2018-01-17T09:02:21.512Z,71.08
2018-01-17T09:04:49.802Z,70.13
2018-01-17T09:07:18.922Z,70.48
2018-01-17T09:09:47.235Z,70.74
2018-01-17T09:12:15.530Z,70.32
2018-01-17T09:14:43.876Z,72.28
2018-01-17T09:17:12.179Z,76.30
2018-01-17T09:19:40.485Z,78.02
2018-01-17T09:22:08.823Z,79.10
2018-01-17T09:24:37.747Z,79.36
2018-01-17T09:27:06.248Z,78.89
2018-01-17T09:29:34.683Z,79.43
2018-01-17T09:32:03.008Z,79.22
2018-01-17T09:34:31.323Z,79.68
2018-01-17T09:36:59.946Z,79.12
2018-01-17T09:39:28.375Z,79.93
2018-01-17T09:41:56.680Z,82.93
2018-01-17T09:44:25.310Z,86.24
2018-01-17T09:46:54.379Z,88.98
2018-01-17T09:49:22.683Z,90.68
2018-01-17T09:51:51.280Z,91.94
2018-01-17T09:54:19.603Z,92.64
2018-01-17T09:56:48.623Z,92.61
2018-01-17T09:59:17.483Z,92.36
2018-01-17T10:01:45.791Z,90.83
2018-01-17T10:04:14.144Z,88.94
2018-01-17T10:06:42.604Z,85.65
2018-01-17T10:09:10.922Z,84.37
2018-01-17T10:11:39.223Z,82.77
2018-01-17T10:14:07.576Z,82.31
2018-01-17T10:16:35.883Z,79.31
2018-01-17T10:19:04.184Z,79.61
2018-01-17T10:21:33.211Z,78.95
2018-01-17T10:24:01.522Z,78.40
2018-01-17T10:26:29.824Z,78.50
2018-01-17T10:28:58.166Z,78.96
2018-01-17T10:31:27.993Z,78.10
2018-01-17T10:33:56.303Z,78.19
2018-01-17T10:36:25.033Z,78.44
2018-01-17T10:38:53.340Z,77.82
2018-01-17T10:41:22.403Z,77.73
2018-01-17T10:43:51.610Z,75.79
2018-01-17T10:46:19.927Z,75.88
2018-01-17T10:48:48.239Z,74.70
2018-01-17T10:51:18.936Z,75.28
2018-01-17T10:53:47.232Z,74.25
2018-01-17T10:56:15.535Z,74.61
2018-01-17T10:58:43.871Z,74.05
2018-01-17T11:01:13.035Z,73.83
2018-01-17T11:03:41.386Z,73.05
2018-01-17T11:06:10.332Z,73.78
2018-01-17T11:08:38.667Z,73.75
2018-01-17T11:11:06.963Z,72.66
2018-01-17T11:13:35.320Z,73.43
2018-01-17T11:16:03.627Z,72.77
2018-01-17T11:18:32.696Z,73.36
2018-01-17T11:21:01.815Z,73.18
2018-01-17T11:23:30.875Z,72.73
2018-01-17T11:25:59.176Z,72.88
2018-01-17T11:28:27.515Z,73.25
2018-01-17T11:30:57.043Z,73.22
2018-01-17T11:33:25.343Z,74.11
2018-01-17T11:35:53.709Z,73.63
2018-01-17T11:38:22.779Z,74.92
2018-01-17T11:40:51.087Z,76.19
2018-01-17T11:43:20.188Z,74.41
2018-01-17T11:45:49.246Z,72.64
2018-01-17T11:48:17.546Z,73.46
2018-01-17T11:50:45.880Z,71.91
2018-01-17T11:53:15.607Z,72.37
2018-01-17T11:55:43.904Z,71.83
2018-01-17T11:58:12.546Z,72.85
2018-01-17T12:00:40.843Z,70.47
2018-01-17T12:03:09.206Z,71.42
2018-01-17T12:05:37.551Z,71.17
2018-01-17T12:08:06.647Z,70.10
2018-01-17T12:10:35.715Z,68.56
2018-01-17T12:13:04.307Z,68.78
2018-01-17T12:15:32.606Z,67.04
2018-01-17T12:18:00.911Z,66.37
2018-01-17T12:20:29.263Z,66.46
2018-01-17T12:22:57.559Z,66.87
2018-01-17T12:25:26.333Z,68.09
2018-01-17T12:27:54.689Z,66.64
2018-01-17T12:30:23.752Z,66.33
2018-01-17T12:32:52.057Z,67.76
2018-01-17T12:35:20.419Z,65.91
2018-01-17T12:37:48.728Z,67.31
2018-01-17T12:40:17.022Z,65.68
2018-01-17T12:42:45.372Z,66.74
2018-01-17T12:45:13.663Z,67.16
2018-01-17T12:47:42.038Z,67.12
2018-01-17T12:50:10.722Z,67.54
2018-01-17T12:52:39.091Z,67.50
2018-01-17T12:57:43.109Z,68.16
2018-01-17T13:00:11.444Z,68.29
2018-01-17T13:02:39.748Z,67.11
2018-01-17T13:05:08.467Z,66.65
2018-01-17T13:07:36.768Z,68.01
2018-01-17T13:10:05.483Z,68.16
2018-01-17T13:12:34.024Z,68.36
2018-01-17T13:15:02.679Z,68.59
2018-01-17T13:17:30.979Z,71.01
2018-01-17T13:20:00.071Z,77.85
2018-01-17T13:22:28.384Z,79.03
2018-01-17T13:24:56.771Z,79.69
2018-01-17T13:27:26.416Z,79.29
2018-01-17T13:29:54.859Z,79.09
2018-01-17T13:32:23.165Z,77.88
2018-01-17T13:34:51.516Z,77.78
2018-01-17T13:37:19.844Z,77.21
2018-01-17T13:39:48.151Z,75.79
2018-01-17T13:42:16.480Z,73.91
2018-01-17T13:44:44.786Z,72.92
2018-01-17T13:47:13.853Z,71.08
2018-01-17T13:49:42.563Z,70.00
2018-01-17T13:52:10.884Z,68.13
2018-01-17T13:54:39.203Z,70.30
2018-01-17T13:57:07.556Z,69.12
2018-01-17T13:59:35.856Z,69.56
2018-01-17T14:02:04.159Z,68.38
2018-01-17T14:04:33.172Z,68.08
2018-01-17T14:07:01.468Z,68.33
2018-01-17T14:09:29.761Z,69.17
2018-01-17T14:11:58.093Z,68.96
2018-01-17T14:14:26.391Z,69.02
2018-01-17T14:16:55.459Z,68.30
2018-01-17T14:19:24.544Z,68.51
2018-01-17T14:21:52.849Z,69.36
2018-01-17T14:24:21.201Z,69.65
2018-01-17T14:26:49.505Z,69.66
2018-01-17T14:29:17.827Z,70.35
2018-01-17T14:31:46.632Z,70.17
2018-01-17T14:34:14.938Z,71.24
2018-01-17T14:36:43.286Z,73.47
2018-01-17T14:39:11.631Z,75.92
2018-01-17T14:41:39.931Z,77.67
2018-01-17T14:44:09.016Z,78.10
2018-01-17T14:46:37.451Z,78.95
2018-01-17T14:49:05.762Z,79.25
2018-01-17T14:51:34.376Z,80.40
2018-01-17T14:54:03.453Z,81.44
2018-01-17T14:56:31.762Z,81.67
2018-01-17T14:59:00.063Z,82.03
2018-01-17T15:01:28.414Z,81.65
2018-01-17T15:03:57.099Z,81.98
2018-01-17T15:06:25.423Z,82.43
2018-01-17T15:08:53.765Z,82.41
2018-01-17T15:11:22.071Z,82.81
2018-01-17T15:13:50.363Z,82.74
2018-01-17T15:16:19.764Z,83.01
2018-01-17T15:18:48.126Z,83.24
2018-01-17T15:21:16.428Z,83.48
2018-01-17T15:23:45.444Z,83.23
2018-01-17T15:26:13.873Z,82.67
2018-01-17T15:28:42.175Z,82.16
2018-01-17T15:31:10.479Z,81.65
2018-01-17T15:33:41.396Z,80.36
2018-01-17T15:36:09.730Z,80.44
2018-01-17T15:38:38.028Z,79.67
2018-01-17T15:41:06.377Z,79.38
2018-01-17T15:43:34.685Z,79.69
2018-01-17T15:46:03.340Z,80.01
2018-01-17T15:48:32.198Z,80.20
2018-01-17T15:51:00.496Z,80.84
2018-01-17T15:53:28.803Z,80.71
2018-01-17T15:55:57.832Z,81.17
2018-01-17T15:58:26.144Z,81.25
2018-01-17T16:00:54.731Z,81.47
2018-01-17T16:03:24.242Z,81.90
2018-01-17T16:05:53.318Z,82.40
2018-01-17T16:08:21.611Z,81.70
2018-01-17T16:10:50.103Z,82.06
2018-01-17T16:13:18.481Z,81.42
2018-01-17T16:15:47.343Z,80.97
2018-01-17T16:18:16.347Z,80.07
2018-01-17T16:20:45.415Z,79.70
2018-01-17T16:23:13.739Z,80.65
2018-01-17T16:25:42.079Z,81.05
2018-01-17T16:28:10.603Z,80.91
2018-01-17T16:30:39.202Z,81.21
2018-01-17T16:33:08.558Z,82.10
2018-01-17T16:35:36.866Z,81.81
2018-01-17T16:38:05.166Z,81.89
2018-01-17T16:40:34.565Z,81.47
2018-01-17T16:43:03.592Z,80.82
2018-01-17T16:45:31.910Z,80.43
2018-01-17T16:48:00.512Z,80.49
2018-01-17T16:50:29.263Z,79.22
2018-01-17T16:52:58.385Z,78.33
2018-01-17T16:55:26.738Z,79.31
2018-01-17T16:57:55.050Z,79.16
2018-01-17T17:00:23.394Z,79.25
2018-01-17T17:02:52.461Z,78.16
2018-01-17T17:05:20.940Z,76.86
2018-01-17T17:07:50.559Z,75.23
2018-01-17T17:10:18.955Z,75.76
2018-01-17T17:12:47.825Z,75.64
2018-01-17T17:15:16.204Z,76.03
2018-01-17T17:17:45.316Z,75.81
2018-01-17T17:20:13.679Z,76.40
2018-01-17T17:22:41.983Z,75.44
2018-01-17T17:25:10.326Z,75.49
2018-01-17T17:27:39.352Z,73.76
2018-01-17T17:30:07.725Z,74.73
2018-01-17T17:32:36.027Z,74.63
2018-01-17T17:35:04.825Z,74.38
2018-01-17T17:37:34.031Z,73.87
2018-01-17T17:40:02.423Z,73.82
2018-01-17T17:42:30.747Z,72.75
2018-01-17T17:44:59.823Z,73.48
2018-01-17T17:47:28.115Z,73.07
2018-01-17T17:49:56.414Z,73.32
2018-01-17T17:52:24.763Z,74.75
2018-01-17T17:54:53.054Z,75.16
2018-01-17T17:57:21.352Z,74.47
2018-01-17T17:59:50.264Z,75.11
2018-01-17T18:02:18.579Z,75.24
2018-01-17T18:04:46.888Z,75.48
2018-01-17T18:07:15.916Z,75.70
2018-01-17T18:09:45.011Z,75.52
2018-01-17T18:12:14.212Z,75.30
2018-01-17T18:14:43.378Z,76.45
2018-01-17T18:17:13.684Z,75.56
2018-01-17T18:19:42.880Z,74.95
2018-01-17T18:22:12.016Z,74.09
2018-01-17T18:24:40.935Z,73.99
2018-01-17T18:27:09.400Z,74.95
2018-01-17T18:29:37.703Z,76.00
2018-01-17T18:32:06.202Z,75.33
2018-01-17T18:34:34.651Z,75.11
2018-01-17T18:37:03.987Z,73.77
2018-01-17T18:39:33.187Z,73.75
2018-01-17T18:42:02.606Z,73.36
2018-01-17T18:44:31.730Z,73.57
2018-01-17T18:47:01.025Z,74.67
2018-01-17T18:49:29.319Z,75.64
2018-01-17T18:51:57.664Z,74.85
2018-01-17T18:54:26.231Z,72.65
2018-01-17T18:56:54.532Z,73.08
2018-01-17T18:59:23.123Z,72.73
2018-01-17T19:01:51.424Z,72.60
2018-01-17T19:04:19.723Z,73.42
2018-01-17T19:06:48.796Z,74.90
2018-01-17T19:09:17.115Z,75.13
2018-01-17T19:11:46.436Z,74.35
2018-01-17T19:14:14.935Z,73.94
2018-01-17T19:16:43.234Z,74.85
2018-01-17T19:19:11.721Z,73.17
2018-01-17T19:21:40.032Z,73.86
2018-01-17T19:24:09.845Z,72.72
2018-01-17T19:26:39.720Z,72.47
2018-01-17T19:29:08.020Z,73.33
2018-01-17T19:31:36.317Z,72.40
2018-01-17T19:34:04.666Z,71.91
2018-01-17T19:36:33.013Z,72.69
2018-01-17T19:39:01.279Z,74.52
2018-01-17T19:41:29.987Z,73.59
2018-01-17T19:43:58.342Z,74.68
2018-01-17T19:46:26.703Z,72.85
2018-01-17T19:48:55.215Z,73.75
2018-01-17T19:51:23.511Z,72.90
2018-01-17T19:53:51.849Z,71.62
2018-01-17T19:56:20.267Z,72.50
2018-01-17T19:58:49.368Z,72.32
2018-01-17T20:01:17.686Z,71.47
2018-01-17T20:03:46.058Z,70.13
2018-01-17T20:06:14.404Z,70.13
2018-01-17T20:08:42.740Z,71.59
2018-01-17T20:11:11.031Z,71.91
2018-01-17T20:13:39.403Z,71.87
2018-01-17T20:16:07.724Z,72.52
2018-01-17T20:18:36.073Z,72.45
2018-01-17T20:21:05.282Z,71.86
2018-01-17T20:23:34.130Z,71.74
2018-01-17T20:26:02.431Z,71.37
2018-01-17T20:28:31.380Z,71.87
2018-01-17T20:30:59.740Z,72.25
2018-01-17T20:33:28.771Z,72.65
2018-01-17T20:35:58.132Z,72.69
2018-01-17T20:38:26.459Z,72.29
2018-01-17T20:40:54.946Z,72.54
2018-01-17T20:43:23.562Z,73.43
2018-01-17T20:45:51.918Z,74.06
2018-01-17T20:48:20.482Z,73.19
2018-01-17T20:50:49.220Z,73.02
2018-01-17T20:53:17.563Z,73.47
2018-01-17T20:55:45.867Z,73.09
2018-01-17T21:49:14.386Z,75.77
2018-01-17T21:51:42.878Z,76.68
2018-01-17T21:54:13.106Z,77.66
2018-01-17T21:56:41.844Z,78.53
2018-01-17T21:59:10.227Z,78.56
2018-01-17T22:01:38.585Z,79.44
2018-01-17T22:04:07.705Z,80.12
2018-01-17T22:06:38.104Z,81.18
2018-01-17T22:09:06.411Z,82.34
2018-01-17T22:11:34.885Z,83.34
2018-01-17T22:14:04.620Z,83.75
2018-01-17T22:16:33.477Z,84.41
2018-01-17T22:19:01.897Z,85.35
2018-01-17T22:21:30.584Z,86.39
2018-01-17T22:23:58.957Z,87.50
2018-01-17T22:26:27.342Z,88.60
2018-01-17T22:28:55.647Z,89.40
2018-01-17T22:31:25.308Z,89.90
2018-01-17T22:33:53.670Z,90.20
2018-01-17T22:36:21.976Z,90.89
2018-01-17T22:38:51.046Z,91.29
2018-01-17T22:41:19.410Z,92.55
2018-01-17T22:43:47.980Z,93.28
2018-01-17T22:46:16.280Z,93.62
2018-01-17T22:48:44.636Z,94.08
2018-01-17T22:51:12.939Z,94.04
2018-01-17T22:53:41.252Z,94.04
2018-01-17T22:56:09.608Z,94.32
2018-01-17T22:58:37.921Z,94.72
2018-01-17T23:01:06.230Z,94.73
2018-01-17T23:03:35.352Z,94.73
2018-01-17T23:06:03.668Z,94.75
2018-01-17T23:08:31.988Z,94.59
2018-01-17T23:11:00.343Z,94.35
2018-01-17T23:13:28.656Z,94.45
2018-01-17T23:15:57.311Z,94.30
2018-01-17T23:18:25.656Z,93.86
2018-01-17T23:20:53.964Z,94.06
2018-01-17T23:23:22.279Z,93.98
2018-01-17T23:25:51.154Z,93.85
2018-01-17T23:28:19.499Z,93.81
2018-01-17T23:30:47.807Z,93.90
2018-01-17T23:33:16.770Z,94.07
2018-01-17T23:35:45.085Z,94.21
2018-01-17T23:38:13.397Z,94.17
2018-01-17T23:40:41.770Z,94.24
2018-01-17T23:43:10.083Z,94.62
2018-01-17T23:45:38.381Z,94.68
2018-01-17T23:48:06.736Z,94.62
2018-01-17T23:50:35.052Z,94.43
2018-01-17T23:53:03.355Z,94.26
2018-01-17T23:55:33.052Z,94.11
2018-01-17T23:58:01.354Z,94.06
